PGRO

Benjamin Taisacan Manglona International Airport

Rota Island, , North Mariana Islands
PGRO 202342Z 2100/2124 08008KT P6SM VCSH FEW014 SCT040 BKN110 TEMPO 2100/2102 4SM SHRA SCT014 BKN030 FM210200 08013KT P6SM VCSH FEW016 SCT040 SCT120
Issued Valid From Valid To
Apr-20 @ 23:42 UTC
(4 hours ago)
Apr-21 @ 00:00 UTC
(4 hours ago)
Apr-22 @ 00:00 UTC
(in 20 hours)
Expired Click to View Apr-21 @ 00:00 to Apr-21 @ 02:00
PGRO 202342Z 2100/2124 08008KT P6SM VCSH FEW014 SCT040 BKN110
Wind Visibility Clouds
80° at 8 knots 10,000+ meters
  • Few at 1,400' AGL
  • Scattered at 4,000' AGL
  • Broken at 11,000' AGL
Expired Click to View Apr-21 @ 00:00 to Apr-21 @ 02:00
TEMPO 2100/2102 4SM SHRA SCT014 BKN030
Visibility Clouds Conditions
6,437 meters
  • Scattered at 1,400' AGL
  • Broken at 3,000' AGL
  • Rain
From Apr-21 @ 02:00 to Apr-22 @ 00:00
FM210200 08013KT P6SM VCSH FEW016 SCT040 SCT120
Wind Visibility Clouds
80° at 13 knots 10,000+ meters
  • Few at 1,600' AGL
  • Scattered at 4,000' AGL
  • Scattered at 12,000' AGL
PGRO 202342Z 2100/2124 08008KT P6SM VCSH FEW014 SCT040 BKN110 TEMPO 2100/2102 4SM SHRA SCT014 BKN030 FM210200 08013KT P6SM VCSH FEW016 SCT040 SCT120
Issued Apr-20 @ 23:42 UTC
(4 hours ago)
Valid From Apr-21 @ 00:00 UTC
(4 hours ago)
Valid To Apr-22 @ 00:00 UTC
(in 20 hours)
Apr-21 @ 00:00 - Apr-21 @ 02:00
Wind Visibility
80° at 8 knots 10,000+ meters
Clouds
  • Few at 1,400' AGL
  • Scattered at 4,000' AGL
  • Broken at 11,000' AGL
Apr-21 @ 00:00 - Apr-21 @ 02:00
Clouds
  • Scattered at 1,400' AGL
  • Broken at 3,000' AGL
Conditions
  • Rain
From Apr-21 @ 02:00 - Apr-22 @ 00:00
Wind Visibility
80° at 13 knots 10,000+ meters
Clouds
  • Few at 1,600' AGL
  • Scattered at 4,000' AGL
  • Scattered at 12,000' AGL